Main page
METAR-TAF:

METAR-TAF

Airports :

Caen – Carpiquet Airport

Caen, France

latitude: 49-11N, longitude: 000-27W, elevation: 78 m

Current weather observation

The report was made 29 minutes ago, at 04:00 UTC
Wind 5 kt from the East
Temperature 16°C
Humidity 94%
Pressure 1012 hPa
Visibility 10 km or more
Overcast at a height of 900 ft

METAR: LFRK 260400Z AUTO 10005KT 9999 OVC009 16/15 Q1012

Time: 06:29 (04:29 UTC)

Forecast

The report was made 14 hours and 29 minutes ago, at 14:00 UTC
Forecast valid from 25 at 15 UTC to 25 at 24 UTC
Wind 5 kt from variable directions
Visibility 10 km or more
Scattered clouds at a height of 3000 ft
Probability 30% :
Temporary
from 25 at 16 UTC to 25 at 24 UTC
Visibility: 4000 m
Broken clouds at a height of 2000 ft, Towering cumulus.
rain showers

TAF: LFRK 251400Z 2515/2524 VRB05KT 9999 SCT030 PROB30 TEMPO 2516/2524 4000 SHRA BKN020TCU

Weather observations and forecasts of more than 4000 airports (METAR and TAF reports).

The available stations are represented by yellow and red dots on the map.

Hover mouse over dot to see the name of the station.

Then click to see weather observations and forecasts.

To change the map : click on the green buttons with a black cross to zoom in, on the green button with a dash to zoom out, or on the green arrows for adjacent maps.


METAR-TAF: